Time;durP1;ratioP1;P1;durP2;ratioP2;P2;SDS_P1;SDS_P2;PMS_P1;PMS_P2;Temp;Humidity;BMP_temperature;BMP_pressure;BME280_temperature;BME280_humidity;BME280_pressure;Samples;Min_cycle;Max_cycle;Signal;HPM_P1;HPM_P2
2022/06/14 00:00:55;;;;;;;10.18;2.40;;;;;;;8.57;100.00;154682.59;4913505;29;20073;-78
2022/06/14 00:03:36;;;;;;;10.85;2.53;;;;;;;8.58;100.00;154685.13;4917482;29;20071;-81
2022/06/14 00:06:07;;;;;;;8.18;2.38;;;;;;;8.57;100.00;154681.34;4934562;29;20040;-78
2022/06/14 00:08:33;;;;;;;8.55;2.70;;;;;;;8.52;100.00;154668.50;4940015;29;20044;-77
2022/06/14 00:11:03;;;;;;;9.35;2.45;;;;;;;8.50;100.00;154664.66;4927123;29;20409;-78
2022/06/14 00:13:29;;;;;;;13.95;3.00;;;;;;;8.44;100.00;154649.28;4956358;28;20052;-78
2022/06/14 00:15:55;;;;;;;9.15;2.40;;;;;;;8.39;100.00;154636.41;4939920;28;20798;-79
2022/06/14 00:18:21;;;;;;;9.55;2.42;;;;;;;8.33;100.00;154621.06;4916244;29;20039;-81
2022/06/14 00:20:48;;;;;;;10.10;2.58;;;;;;;8.30;100.00;154613.34;4952962;29;20035;-81
2022/06/14 00:23:16;;;;;;;8.93;2.53;;;;;;;8.27;100.00;154605.66;4947172;28;20058;-81
2022/06/14 00:25:53;;;;;;;12.52;2.58;;;;;;;8.23;100.00;154595.41;4933244;29;20038;-83
2022/06/14 00:28:20;;;;;;;11.10;2.38;;;;;;;8.19;100.00;154586.44;4923020;28;20031;-79
2022/06/14 00:30:50;;;;;;;13.98;2.45;;;;;;;8.17;100.00;154582.63;4935647;29;20123;-80
2022/06/14 00:33:16;;;;;;;8.18;2.90;;;;;;;8.22;100.00;154594.16;4937550;29;20067;-80
2022/06/14 00:35:42;;;;;;;13.10;2.33;;;;;;;8.15;100.00;154577.47;4917402;29;20043;-81
2022/06/14 00:38:11;;;;;;;12.75;2.60;;;;;;;8.23;100.00;154596.72;4938044;29;20051;-82
2022/06/14 00:40:38;;;;;;;7.15;2.40;;;;;;;8.14;100.00;154573.66;4935269;29;20055;-79
2022/06/14 00:43:13;;;;;;;11.32;2.60;;;;;;;8.17;100.00;154581.31;4941523;28;20763;-78
2022/06/14 00:45:38;;;;;;;12.27;2.60;;;;;;;8.21;100.00;154590.28;4951672;29;20046;-81
2022/06/14 00:48:13;;;;;;;12.50;2.90;;;;;;;8.15;100.00;154576.22;4915577;28;20043;-79
2022/06/14 00:51:00;;;;;;;13.32;2.90;;;;;;;8.16;100.00;154580.06;4947959;29;20035;-81
2022/06/14 00:53:54;;;;;;;11.68;2.60;;;;;;;8.19;100.00;154587.75;4930926;29;20035;-81
2022/06/14 00:56:43;;;;;;;12.93;2.42;;;;;;;8.21;100.00;154591.56;4938378;29;20528;-78
2022/06/14 00:59:20;;;;;;;10.02;2.45;;;;;;;8.22;100.00;154594.16;4920911;28;20067;-81
2022/06/14 01:01:49;;;;;;;13.00;2.58;;;;;;;8.25;100.00;154600.53;4945859;29;20100;-76
2022/06/14 01:04:19;;;;;;;7.97;2.28;;;;;;;8.21;100.00;154590.28;4956772;29;20083;-80
2022/06/14 01:07:05;;;;;;;12.50;2.70;;;;;;;8.21;100.00;154590.28;4943812;28;20062;-80
2022/06/14 01:09:40;;;;;;;8.57;2.38;;;;;;;8.24;100.00;154599.28;4944352;29;20087;-79
2022/06/14 01:12:10;;;;;;;9.93;2.20;;;;;;;8.24;100.00;154599.28;4949205;29;20066;-77
2022/06/14 01:15:00;;;;;;;14.82;2.30;;;;;;;8.29;100.00;154612.09;4917570;29;20042;-80
2022/06/14 01:17:27;;;;;;;12.50;2.30;;;;;;;8.31;100.00;154617.22;4934934;29;20046;-78
2022/06/14 01:19:53;;;;;;;13.02;2.45;;;;;;;8.39;100.00;154637.69;4935088;29;20047;-79
2022/06/14 01:22:19;;;;;;;12.00;2.67;;;;;;;8.49;100.00;154660.81;4916239;29;20123;-79
2022/06/14 01:24:45;;;;;;;11.15;2.10;;;;;;;8.43;100.00;154645.44;4931058;29;20056;-77
2022/06/14 01:27:16;;;;;;;8.77;2.40;;;;;;;8.45;100.00;154650.56;4941849;28;20175;-76
2022/06/14 01:29:46;;;;;;;10.40;2.50;;;;;;;8.42;100.00;154644.19;4957925;29;20050;-81
2022/06/14 01:32:15;;;;;;;10.73;2.35;;;;;;;8.43;100.00;154645.44;4957324;29;20035;-79
2022/06/14 01:34:50;;;;;;;12.90;2.40;;;;;;;8.43;100.00;154645.44;4950634;29;20035;-81
2022/06/14 01:37:16;;;;;;;12.40;2.28;;;;;;;8.46;100.00;154653.16;4959242;28;20034;-82
2022/06/14 01:39:42;;;;;;;12.98;2.40;;;;;;;8.52;100.00;154669.78;4949678;29;20043;-81
2022/06/14 01:42:31;;;;;;;12.48;2.33;;;;;;;8.45;100.00;154651.81;4948657;28;20031;-76
2022/06/14 01:45:11;;;;;;;11.35;2.50;;;;;;;8.52;100.00;154669.78;4935334;28;20075;-76
2022/06/14 01:47:59;;;;;;;11.82;2.60;;;;;;;8.56;100.00;154680.03;4946025;28;20048;-81
2022/06/14 01:54:08;;;;;;;10.65;2.50;;;;;;;8.69;100.00;154710.78;4949159;29;20031;-79
2022/06/14 01:56:47;;;;;;;11.35;2.90;;;;;;;8.61;100.00;154690.25;4891812;28;20166;-78
2022/06/14 01:59:19;;;;;;;11.20;2.08;;;;;;;8.60;100.00;154687.72;4945118;28;20051;-78
2022/06/14 02:02:16;;;;;;;11.27;2.35;;;;;;;8.56;100.00;154680.03;4937490;29;20046;-78
2022/06/14 02:04:49;;;;;;;15.20;2.38;;;;;;;8.53;100.00;154672.38;4914544;29;20031;-80
2022/06/14 02:07:41;;;;;;;10.77;2.38;;;;;;;8.52;100.00;154669.78;4955290;28;20048;-80
2022/06/14 02:10:16;;;;;;;12.30;2.28;;;;;;;8.58;100.00;154683.88;4931812;28;20521;-79
2022/06/14 02:12:55;;;;;;;7.82;2.10;;;;;;;8.54;100.00;154674.91;4938013;29;20047;-79
2022/06/14 02:15:47;;;;;;;9.30;2.28;;;;;;;8.50;100.00;154663.38;4961943;28;20062;-78
2022/06/14 02:18:34;;;;;;;10.57;2.20;;;;;;;8.46;100.00;154654.41;4944149;29;20102;-78
2022/06/14 02:21:22;;;;;;;8.85;2.50;;;;;;;8.49;100.00;154660.81;4949668;29;20596;-78
2022/06/14 02:23:54;;;;;;;10.90;2.17;;;;;;;8.45;100.00;154650.56;4940593;29;20031;-79
2022/06/14 02:26:29;;;;;;;11.25;2.47;;;;;;;8.42;100.00;154644.19;4953793;28;20037;-78
2022/06/14 02:29:04;;;;;;;9.50;2.75;;;;;;;8.45;100.00;154651.81;4928825;28;20035;-78
2022/06/14 02:31:41;;;;;;;11.40;2.22;;;;;;;8.45;100.00;154651.81;4945183;28;20043;-79
2022/06/14 02:34:20;;;;;;;12.88;2.60;;;;;;;8.42;100.00;154644.19;4961014;28;20043;-79
2022/06/14 02:36:57;;;;;;;12.60;2.60;;;;;;;8.45;100.00;154651.81;4952805;29;20098;-78
2022/06/14 02:39:47;;;;;;;12.82;2.88;;;;;;;8.44;100.00;154649.28;4940931;28;20066;-81
2022/06/14 02:42:30;;;;;;;10.38;2.33;;;;;;;8.47;100.00;154656.94;4949324;28;20043;-78
2022/06/14 02:45:51;;;;;;;11.95;2.65;;;;;;;8.51;100.00;154667.25;4954725;28;20043;-78
2022/06/14 02:48:36;;;;;;;9.77;2.50;;;;;;;8.40;100.00;154639.00;4925761;29;20047;-81
2022/06/14 02:51:16;;;;;;;12.82;2.63;;;;;;;8.33;100.00;154622.34;4938408;29;20058;-79
2022/06/14 02:53:56;;;;;;;13.35;2.70;;;;;;;8.28;100.00;154609.50;4944243;29;20075;-79
2022/06/14 02:56:27;;;;;;;9.85;2.30;;;;;;;8.25;100.00;154600.53;4952770;28;20053;-78
2022/06/14 02:59:05;;;;;;;10.95;2.40;;;;;;;8.20;100.00;154589.03;4939070;29;20054;-81
2022/06/14 03:01:45;;;;;;;14.15;2.60;;;;;;;8.33;100.00;154621.06;4951171;28;20046;-78
2022/06/14 03:04:17;;;;;;;13.82;2.38;;;;;;;8.37;100.00;154632.56;4945168;29;20051;-80
2022/06/14 03:06:51;;;;;;;14.52;2.50;;;;;;;8.34;100.00;154624.91;4917961;29;20036;-79
2022/06/14 03:09:21;;;;;;;8.98;2.58;;;;;;;8.43;100.00;154646.72;4959788;28;20031;-78
2022/06/14 03:11:56;;;;;;;7.18;2.22;;;;;;;8.43;100.00;154646.72;4966211;28;20035;-77
2022/06/14 03:14:35;;;;;;;10.30;2.58;;;;;;;8.37;100.00;154632.56;4964770;28;20047;-80
2022/06/14 03:17:04;;;;;;;15.20;3.10;;;;;;;8.42;100.00;154644.19;4923181;28;20035;-79
2022/06/14 03:19:47;;;;;;;14.82;2.65;;;;;;;8.43;100.00;154645.44;4948095;28;20038;-80
2022/06/14 03:22:19;;;;;;;14.38;3.60;;;;;;;8.43;100.00;154646.72;4955647;28;20042;-78
2022/06/14 03:24:53;;;;;;;12.55;2.50;;;;;;;8.43;100.00;154646.72;4942386;29;20047;-76
2022/06/14 03:27:43;;;;;;;14.30;3.05;;;;;;;8.44;100.00;154649.28;4942235;28;20043;-80
2022/06/14 03:30:16;;;;;;;14.13;2.70;;;;;;;8.50;100.00;154664.66;4921058;28;20049;-78
2022/06/14 03:32:54;;;;;;;10.02;2.40;;;;;;;8.54;100.00;154673.63;4937421;29;20055;-77
2022/06/14 03:35:29;;;;;;;10.48;2.40;;;;;;;8.63;100.00;154695.44;4954232;28;20039;-79
2022/06/14 03:37:58;;;;;;;12.05;2.47;;;;;;;8.73;100.00;154721.03;4970028;28;20054;-75
2022/06/14 03:40:24;;;;;;;12.75;3.00;;;;;;;8.76;100.00;154728.75;4955694;29;20043;-80
2022/06/14 03:42:51;;;;;;;9.18;2.45;;;;;;;8.83;100.00;154745.38;4955594;29;20107;-75
2022/06/14 03:45:34;;;;;;;10.57;2.58;;;;;;;8.88;100.00;154758.19;4949604;29;20118;-77
2022/06/14 03:48:01;;;;;;;15.65;3.10;;;;;;;9.11;100.00;154817.13;4948038;29;20035;-79
2022/06/14 03:50:43;;;;;;;7.95;2.50;;;;;;;9.16;100.00;154828.69;4966833;28;20070;-80
2022/06/14 03:53:36;;;;;;;13.65;3.75;;;;;;;9.15;100.00;154827.44;4945744;29;20097;-78
2022/06/14 03:56:10;;;;;;;9.07;2.50;;;;;;;9.27;100.00;154855.63;4951977;28;20051;-77
2022/06/14 03:58:48;;;;;;;10.07;2.95;;;;;;;9.31;100.00;154867.13;4950040;29;20035;-77
2022/06/14 04:01:33;;;;;;;9.90;2.97;;;;;;;9.35;100.00;154877.38;4950621;28;20050;-79
2022/06/14 04:04:22;;;;;;;14.32;3.00;;;;;;;9.46;100.00;154904.31;4964347;28;20035;-81
2022/06/14 04:07:00;;;;;;;12.23;2.88;;;;;;;9.53;100.00;154920.97;4970442;28;20065;-77
2022/06/14 04:09:48;;;;;;;11.90;2.40;;;;;;;9.60;100.00;154937.66;4939998;29;20027;-80
2022/06/14 04:12:28;;;;;;;13.60;2.78;;;;;;;9.62;100.00;154942.78;4946956;29;20043;-77
2022/06/14 04:15:13;;;;;;;14.00;3.20;;;;;;;9.69;100.00;154960.75;4945431;28;20046;-76
2022/06/14 04:18:38;;;;;;;9.57;2.83;;;;;;;9.76;100.00;154978.69;4950642;28;20047;-78
2022/06/14 04:21:38;;;;;;;13.95;3.10;;;;;;;9.93;100.00;155021.00;4967948;28;20054;-80
2022/06/14 04:24:28;;;;;;;12.23;2.70;;;;;;;9.93;100.00;155021.00;4971929;28;20101;-77
2022/06/14 04:27:26;;;;;;;12.52;3.00;;;;;;;9.97;100.00;155030.00;4944264;29;20105;-78
2022/06/14 04:30:03;;;;;;;12.70;2.97;;;;;;;10.00;100.00;155038.97;4941450;29;20124;-80
2022/06/14 04:32:42;;;;;;;8.93;2.95;;;;;;;10.01;100.00;155040.25;4952072;29;20063;-78
2022/06/14 04:35:15;;;;;;;13.40;2.75;;;;;;;9.94;100.00;155023.56;4959026;28;20054;-80
2022/06/14 04:37:52;;;;;;;9.93;2.85;;;;;;;10.01;100.00;155041.50;4940217;29;20570;-80
2022/06/14 04:40:21;;;;;;;11.82;3.17;;;;;;;10.17;100.00;155081.31;4956675;29;20144;-80
2022/06/14 04:43:01;;;;;;;14.15;3.00;;;;;;;10.23;100.00;155096.69;4952419;29;20054;-76
2022/06/14 04:45:40;;;;;;;11.40;3.20;;;;;;;10.29;100.00;155110.78;4967958;28;20066;-80
2022/06/14 04:48:13;;;;;;;12.30;2.80;;;;;;;10.64;100.00;155199.38;4964672;29;20307;-79
2022/06/14 04:50:43;;;;;;;15.43;2.97;;;;;;;10.76;100.00;155228.88;4929109;29;20107;-80
2022/06/14 04:53:17;;;;;;;12.68;2.53;;;;;;;11.07;100.00;155305.84;4972077;28;20031;-80
2022/06/14 04:56:11;;;;;;;12.25;2.75;;;;;;;11.13;100.00;155319.97;4948565;29;20379;-76
2022/06/14 04:58:46;;;;;;;13.93;2.65;;;;;;;11.23;100.00;155346.91;4961772;28;20117;-78
2022/06/14 05:01:18;;;;;;;13.23;2.55;;;;;;;11.28;100.00;155358.44;4946340;28;20102;-79
2022/06/14 05:03:55;;;;;;;13.43;2.55;;;;;;;11.34;100.00;155373.88;4942233;29;20053;-79
2022/06/14 05:06:26;;;;;;;7.93;1.85;;;;;;;11.33;100.00;155370.03;4925887;29;20058;-80
2022/06/14 05:08:58;;;;;;;12.23;2.15;;;;;;;11.34;100.00;155373.88;4933569;29;20043;-78
2022/06/14 05:11:48;;;;;;;17.27;2.60;;;;;;;11.25;100.00;155350.78;4939902;29;20107;-78
2022/06/14 05:14:23;;;;;;;11.85;3.15;;;;;;;11.16;100.00;155327.66;4920051;28;20122;-78
2022/06/14 05:16:57;;;;;;;13.15;2.30;;;;;;;11.04;100.00;155299.44;4967988;28;20039;-77
2022/06/14 05:19:37;;;;;;;11.63;2.50;;;;;;;11.03;100.00;155296.84;4954170;29;20043;-79
2022/06/14 05:22:10;;;;;;;10.10;2.42;;;;;;;11.13;100.00;155321.22;4952188;29;20066;-78
2022/06/14 05:24:37;;;;;;;9.73;2.25;;;;;;;11.37;100.00;155380.28;4919533;29;20039;-79
2022/06/14 05:27:19;;;;;;;13.25;2.47;;;;;;;11.48;100.00;155409.81;4957816;28;20089;-77
2022/06/14 05:30:28;;;;;;;9.48;2.05;;;;;;;11.79;100.00;155486.84;4951263;29;20051;-77
2022/06/14 05:33:08;;;;;;;7.85;2.00;;;;;;;11.95;100.00;155525.41;4937446;29;20044;-81
2022/06/14 05:35:52;;;;;;;7.82;1.90;;;;;;;12.10;100.00;155562.66;4943502;29;20047;-79
2022/06/14 05:38:53;;;;;;;15.40;2.38;;;;;;;12.17;100.00;155581.91;4970025;28;20099;-79
2022/06/14 05:41:35;;;;;;;12.30;2.22;;;;;;;12.29;100.00;155610.19;4922526;29;20522;-78
2022/06/14 05:44:07;;;;;;;11.23;2.10;;;;;;;12.27;100.00;155606.31;4954462;28;20035;-80
2022/06/14 05:46:46;;;;;;;12.32;2.13;;;;;;;12.29;100.00;155611.44;4959687;28;20032;-78
2022/06/14 05:49:20;;;;;;;9.38;2.10;;;;;;;12.20;100.00;155588.31;4960888;29;20043;-80
2022/06/14 05:52:05;;;;;;;13.68;1.92;;;;;;;12.18;100.00;155583.19;4952202;29;20085;-76
2022/06/14 05:54:37;;;;;;;14.75;1.95;;;;;;;12.15;100.00;155576.78;4941578;29;20158;-78
2022/06/14 05:57:18;;;;;;;12.98;2.42;;;;;;;12.22;100.00;155594.78;4944143;29;20050;-77
2022/06/14 06:00:25;;;;;;;12.18;2.33;;;;;;;12.19;100.00;155587.06;4950528;29;20043;-80
2022/06/14 06:03:05;;;;;;;12.10;2.42;;;;;;;12.16;100.00;155579.34;4923702;29;20054;-77
2022/06/14 06:05:58;;;;;;;10.25;1.48;;;;;;;12.24;100.00;155598.59;4910505;29;20122;-81
2022/06/14 06:08:50;;;;;;;14.23;2.50;;;;;;;12.32;100.00;155619.19;4945604;29;20107;-79
2022/06/14 06:11:20;;;;;;;11.68;2.00;;;;;;;12.40;100.00;155639.72;4924560;29;20047;-79
2022/06/14 06:13:51;;;;;;;16.15;2.47;;;;;;;12.38;100.00;155633.28;4945488;29;20072;-77
2022/06/14 06:19:46;;;;;;;16.90;2.20;;;;;;;12.55;100.00;155676.97;4953200;29;20039;-80
2022/06/14 06:22:19;;;;;;;9.88;1.70;;;;;;;12.57;100.00;155680.81;4918103;28;20143;-80
2022/06/14 06:24:53;;;;;;;10.50;2.08;;;;;;;12.58;100.00;155684.69;4929631;29;20049;-79
2022/06/14 06:27:28;;;;;;;9.27;1.88;;;;;;;12.57;100.00;155680.81;4954120;28;20517;-81
2022/06/14 06:30:13;;;;;;;6.65;1.77;;;;;;;12.68;100.00;155709.09;4924514;28;20043;-76
2022/06/14 06:32:40;;;;;;;9.32;1.67;;;;;;;12.71;100.00;155716.75;4938128;29;20031;-79
2022/06/14 06:35:06;;;;;;;11.70;1.83;;;;;;;12.77;100.00;155732.22;4945891;28;20409;-79
2022/06/14 06:37:54;;;;;;;7.72;1.65;;;;;;;12.87;100.00;155755.34;4928445;29;20109;-79
2022/06/14 06:40:23;;;;;;;9.80;2.08;;;;;;;12.92;100.00;155768.16;4903966;29;20093;-82
2022/06/14 06:42:59;;;;;;;9.02;1.33;;;;;;;13.12;100.00;155819.56;4931852;28;20039;-78
2022/06/14 06:45:30;;;;;;;11.95;1.98;;;;;;;13.33;100.00;155871.00;4934523;28;20035;-80
2022/06/14 06:48:05;;;;;;;10.80;2.00;;;;;;;13.51;100.00;155916.03;4936130;28;20090;-81
2022/06/14 06:50:45;;;;;;;8.75;1.60;;;;;;;13.66;100.00;155953.28;4934352;28;20085;-79
2022/06/14 06:53:19;;;;;;;10.82;2.15;;;;;;;13.87;100.00;156007.25;4919020;28;20046;-82
2022/06/14 06:55:48;;;;;;;9.18;1.67;;;;;;;13.96;98.55;156030.41;4932546;29;20062;-82
2022/06/14 06:58:31;;;;;;;10.07;1.92;;;;;;;13.96;100.00;156030.41;4946039;28;20043;-79
2022/06/14 07:01:01;;;;;;;10.07;1.60;;;;;;;14.03;99.31;156047.09;4937669;28;20133;-80
2022/06/14 07:03:52;;;;;;;18.85;2.50;;;;;;;14.09;100.00;156061.25;4920166;29;20028;-80
2022/06/14 07:06:23;;;;;;;13.95;2.28;;;;;;;14.18;100.00;156085.72;4949382;28;20374;-80
2022/06/14 07:09:03;;;;;;;14.10;2.85;;;;;;;14.41;97.58;156143.56;4928974;29;20134;-80
2022/06/14 07:11:34;;;;;;;18.20;2.38;;;;;;;14.54;97.83;156175.72;4940576;29;20049;-79
2022/06/14 07:14:31;;;;;;;11.73;2.03;;;;;;;14.65;98.22;156202.75;4929646;28;20039;-79
2022/06/14 07:17:10;;;;;;;11.75;1.95;;;;;;;14.81;99.11;156242.66;4940923;28;20051;-79
2022/06/14 07:19:44;;;;;;;11.23;1.90;;;;;;;14.99;98.76;156287.63;4932808;28;20093;-79
2022/06/14 07:22:22;;;;;;;10.88;2.22;;;;;;;15.15;94.25;156327.56;4946053;28;20131;-79
2022/06/14 07:25:00;;;;;;;8.50;2.25;;;;;;;15.36;92.34;156380.28;4938599;29;20125;-80
2022/06/14 07:27:39;;;;;;;14.13;2.53;;;;;;;15.69;92.21;156462.63;4915967;29;20054;-80
2022/06/14 07:30:12;;;;;;;11.20;2.03;;;;;;;15.84;83.79;156501.31;4942715;28;20472;-78
2022/06/14 07:32:46;;;;;;;8.00;1.60;;;;;;;15.69;88.21;156463.94;4955543;28;20035;-78
2022/06/14 07:35:14;;;;;;;13.10;1.92;;;;;;;15.88;90.18;156511.63;4947715;29;20035;-80
2022/06/14 07:37:49;;;;;;;10.38;1.73;;;;;;;15.84;88.61;156501.31;4938823;29;20035;-78
2022/06/14 07:40:30;;;;;;;11.60;2.05;;;;;;;15.73;89.00;156472.97;4938150;29;20047;-80
2022/06/14 07:43:24;;;;;;;11.80;1.75;;;;;;;15.80;88.58;156491.00;4931185;28;20039;-79
2022/06/14 07:45:49;;;;;;;12.00;1.80;;;;;;;15.85;89.36;156502.59;4960344;28;20520;-80
2022/06/14 07:48:26;;;;;;;9.70;1.95;;;;;;;16.26;86.82;156605.59;4929375;29;20035;-80
2022/06/14 07:50:58;;;;;;;13.55;1.95;;;;;;;16.14;84.80;156577.28;4923462;29;20175;-78
2022/06/14 07:54:00;;;;;;;11.93;1.77;;;;;;;15.75;86.08;156478.16;4910611;29;20493;-81
2022/06/14 07:56:32;;;;;;;13.52;2.35;;;;;;;15.55;87.78;156429.19;4926081;29;20039;-79
2022/06/14 07:59:04;;;;;;;13.10;1.90;;;;;;;15.57;83.15;156434.31;4934590;28;20090;-81
2022/06/14 08:01:39;;;;;;;7.38;1.40;;;;;;;15.65;85.63;156453.66;4916418;29;20057;-82
2022/06/14 08:04:15;;;;;;;7.72;1.55;;;;;;;15.67;83.48;156458.81;4934329;28;20522;-80
2022/06/14 08:06:47;;;;;;;9.00;1.48;;;;;;;15.80;82.80;156491.00;4937559;28;20047;-79
2022/06/14 08:09:22;;;;;;;12.18;1.83;;;;;;;16.15;88.13;156579.81;4938804;28;20074;-81
2022/06/14 08:11:57;;;;;;;7.75;1.50;;;;;;;16.69;78.42;156715.03;4950893;28;20050;-80
2022/06/14 08:14:31;;;;;;;6.20;1.38;;;;;;;16.79;78.32;156739.47;4909817;28;20118;-80
2022/06/14 08:16:59;;;;;;;9.35;1.40;;;;;;;16.76;80.58;156730.47;4945960;28;20035;-83
2022/06/14 08:19:33;;;;;;;10.85;1.67;;;;;;;16.69;79.39;156715.03;4938772;28;20039;-80
2022/06/14 08:22:05;;;;;;;9.68;1.83;;;;;;;16.49;77.58;156664.78;4942026;29;20041;-79
2022/06/14 08:24:41;;;;;;;9.23;1.70;;;;;;;16.07;76.50;156559.25;4931828;29;20049;-81
2022/06/14 08:27:15;;;;;;;11.90;2.03;;;;;;;15.74;82.55;156475.56;4938447;29;20062;-80
2022/06/14 08:29:50;;;;;;;9.20;2.00;;;;;;;15.81;86.64;156492.31;4935855;29;20094;-81
2022/06/14 08:32:27;;;;;;;6.97;1.50;;;;;;;15.68;84.90;156460.09;4944444;28;20034;-81
2022/06/14 08:35:07;;;;;;;7.25;1.73;;;;;;;15.30;81.20;156366.13;4914128;28;20488;-78
2022/06/14 08:37:49;;;;;;;4.03;1.10;;;;;;;15.58;82.91;156435.63;4900112;29;20023;-77
2022/06/14 08:40:35;;;;;;;10.43;1.75;;;;;;;16.50;75.11;156666.06;4932465;29;20056;-81
2022/06/14 08:43:15;;;;;;;6.97;1.27;;;;;;;17.41;72.79;156895.38;4957293;28;20516;-78
2022/06/14 08:45:54;;;;;;;10.38;1.80;;;;;;;17.29;74.36;156864.44;4949952;28;20035;-80
2022/06/14 08:48:29;;;;;;;7.20;1.52;;;;;;;17.00;79.42;156792.31;4958045;28;20038;-81
2022/06/14 08:51:13;;;;;;;9.25;1.30;;;;;;;16.69;72.86;156713.75;4904585;28;20091;-78
2022/06/14 08:54:16;;;;;;;7.35;1.52;;;;;;;16.25;77.32;156603.00;4950796;28;20042;-83
2022/06/14 08:57:22;;;;;;;5.75;1.40;;;;;;;16.73;76.63;156724.03;4917581;29;20629;-82
2022/06/14 09:00:03;;;;;;;11.20;1.45;;;;;;;17.21;76.40;156843.84;4911918;29;20680;-79
2022/06/14 09:02:51;;;;;;;9.40;2.20;;;;;;;17.55;75.69;156928.88;4952795;28;20406;-82
2022/06/14 09:05:35;;;;;;;11.90;1.73;;;;;;;17.43;73.10;156899.25;4942036;28;20035;-79
2022/06/14 09:08:34;;;;;;;8.82;1.65;;;;;;;17.26;73.47;156858.03;4925421;29;20031;-83
2022/06/14 09:11:24;;;;;;;8.73;1.50;;;;;;;16.74;78.92;156727.91;4939683;29;20562;-80
2022/06/14 09:13:56;;;;;;;7.85;1.35;;;;;;;16.62;82.35;156697.00;4946760;28;20039;-81
2022/06/14 09:16:43;;;;;;;9.40;1.10;;;;;;;16.49;79.98;156663.50;4952073;28;20043;-77
2022/06/14 09:19:18;;;;;;;6.07;1.23;;;;;;;16.38;80.54;156635.19;4925113;28;20121;-81
2022/06/14 09:22:05;;;;;;;9.52;1.33;;;;;;;16.43;77.46;156649.34;4935162;29;20043;-81
2022/06/14 09:24:45;;;;;;;10.20;1.65;;;;;;;16.40;72.44;156641.59;4922117;29;20031;-80
2022/06/14 09:27:53;;;;;;;8.15;1.17;;;;;;;16.80;71.99;156742.09;4944659;29;20070;-79
2022/06/14 09:30:37;;;;;;;6.40;1.50;;;;;;;17.09;70.63;156815.50;4951821;28;20379;-79
2022/06/14 09:33:31;;;;;;;9.77;1.80;;;;;;;17.48;71.74;156913.44;4944578;28;20070;-82
2022/06/14 09:36:11;;;;;;;7.43;1.48;;;;;;;17.77;72.55;156984.28;4938331;29;20042;-80
2022/06/14 09:39:04;;;;;;;9.77;1.30;;;;;;;17.33;66.36;156874.78;4943839;28;20050;-82
2022/06/14 09:41:57;;;;;;;6.53;1.50;;;;;;;17.21;68.96;156843.84;4950578;28;20035;-82
2022/06/14 09:44:23;;;;;;;;;;;;;;;17.42;65.60;156897.97;4908148;28;20050;-80
2022/06/14 09:47:10;;;;;;;4.28;1.20;;;;;;;18.46;65.82;157159.59;4932589;29;20005;-83
2022/06/14 09:50:24;;;;;;;6.07;1.17;;;;;;;18.06;65.66;157057.75;4929098;29;20043;-80
2022/06/14 09:53:24;;;;;;;4.65;1.35;;;;;;;17.65;76.58;156954.63;4881516;28;20042;-81
2022/06/14 09:56:01;;;;;;;7.60;1.42;;;;;;;17.38;76.06;156886.38;4941680;28;20031;-81
2022/06/14 09:59:03;;;;;;;8.98;1.60;;;;;;;17.21;81.02;156845.13;4945760;28;20039;-79
2022/06/14 10:01:49;;;;;;;13.52;1.70;;;;;;;17.08;75.86;156812.97;4944143;28;20067;-81
2022/06/14 10:04:22;;;;;;;7.00;1.30;;;;;;;17.04;74.18;156801.34;4906681;28;20163;-81
2022/06/14 10:07:07;;;;;;;5.32;1.50;;;;;;;16.96;71.56;156782.03;4920228;29;20085;-79
2022/06/14 10:09:57;;;;;;;9.77;1.48;;;;;;;16.98;75.08;156785.91;4929011;29;20125;-83
2022/06/14 10:12:55;;;;;;;6.20;1.27;;;;;;;17.07;72.72;156810.38;4961666;28;20050;-80
2022/06/14 10:15:45;;;;;;;4.57;1.30;;;;;;;17.00;67.65;156791.06;4949285;28;20042;-80
2022/06/14 10:18:19;;;;;;;8.40;1.25;;;;;;;16.88;73.29;156761.44;4940955;28;20043;-79
2022/06/14 10:21:00;;;;;;;6.03;1.50;;;;;;;16.79;69.99;156739.47;4944221;29;20077;-81
2022/06/14 10:23:42;;;;;;;5.10;1.42;;;;;;;16.78;71.43;156735.63;4942128;28;20575;-80
2022/06/14 10:29:06;;;;;;;5.43;1.25;;;;;;;16.91;72.40;156769.13;4922896;28;20027;-79
2022/06/14 10:31:53;;;;;;;4.40;1.10;;;;;;;17.16;69.64;156830.97;4919130;29;20050;-81
2022/06/14 10:34:30;;;;;;;8.90;1.38;;;;;;;17.37;67.62;156885.09;4932610;29;20152;-82
2022/06/14 10:37:25;;;;;;;5.00;1.17;;;;;;;17.65;63.84;156954.63;4932774;28;20050;-80
2022/06/14 10:40:09;;;;;;;5.70;1.50;;;;;;;17.73;66.73;156975.28;4900037;29;20577;-81
2022/06/14 10:42:57;;;;;;;4.35;1.10;;;;;;;17.47;65.02;156910.81;4924148;29;20106;-78
2022/06/14 10:45:31;;;;;;;5.30;1.33;;;;;;;17.43;66.78;156899.25;4900803;28;20035;-80
2022/06/14 10:48:27;;;;;;;5.80;1.52;;;;;;;17.38;67.99;156886.38;4947224;28;20086;-80
2022/06/14 10:51:27;;;;;;;5.05;1.23;;;;;;;17.60;67.57;156941.78;4942463;28;20391;-78
2022/06/14 10:53:59;;;;;;;6.85;1.42;;;;;;;17.75;70.80;156979.13;4918239;29;20075;-80
2022/06/14 10:56:37;;;;;;;5.40;1.40;;;;;;;17.76;68.43;156981.69;4915760;29;20055;-81
2022/06/14 10:59:15;;;;;;;7.70;1.83;;;;;;;17.89;67.87;157016.56;4912435;28;20047;-79
2022/06/14 11:01:52;;;;;;;8.27;1.30;;;;;;;18.03;66.84;157051.34;4930051;29;20043;-80
2022/06/14 11:04:36;;;;;;;5.97;1.30;;;;;;;18.07;64.63;157060.38;4924321;29;20409;-79
2022/06/14 11:07:30;;;;;;;6.60;1.42;;;;;;;18.23;68.68;157100.28;4942530;29;20089;-79
2022/06/14 11:09:58;;;;;;;9.73;2.88;;;;;;;18.22;63.82;157099.03;4933239;28;20027;-79
2022/06/14 11:13:08;;;;;;;5.57;1.48;;;;;;;18.32;64.06;157123.50;4910264;29;20146;-79
2022/06/14 11:15:50;;;;;;;7.70;1.45;;;;;;;18.24;69.94;157104.16;4904078;29;20063;-81
2022/06/14 11:18:42;;;;;;;8.00;1.30;;;;;;;18.35;68.45;157129.97;4908664;28;20031;-78
2022/06/14 11:21:14;;;;;;;8.73;1.30;;;;;;;18.46;64.72;157158.31;4901757;29;20498;-80
2022/06/14 11:23:49;;;;;;;6.70;1.50;;;;;;;18.37;62.85;157135.13;4933035;29;20047;-81
2022/06/14 11:26:18;;;;;;;5.25;1.38;;;;;;;18.40;64.32;157144.16;4947661;28;20046;-80
2022/06/14 11:29:20;;;;;;;6.90;1.50;;;;;;;18.55;72.41;157180.22;4934249;29;20043;-78
2022/06/14 11:31:52;;;;;;;8.20;1.27;;;;;;;18.82;63.16;157248.63;4913869;29;20062;-79
2022/06/14 11:34:31;;;;;;;7.20;1.30;;;;;;;18.89;63.18;157265.34;4926316;29;20047;-77
2022/06/14 11:37:34;;;;;;;8.38;1.63;;;;;;;18.89;65.59;157265.34;4940124;29;20090;-80
2022/06/14 11:40:13;;;;;;;9.10;1.50;;;;;;;18.83;62.63;157251.16;4931994;28;20090;-79
2022/06/14 11:42:50;;;;;;;7.18;1.50;;;;;;;19.02;61.21;157300.19;4946676;29;20047;-79
2022/06/14 11:45:44;;;;;;;5.38;1.30;;;;;;;19.14;63.71;157328.56;4939382;28;20808;-80
2022/06/14 11:48:20;;;;;;;4.32;1.10;;;;;;;19.73;61.59;157476.91;4942079;28;20043;-81
2022/06/14 11:51:04;;;;;;;6.03;1.20;;;;;;;20.04;61.96;157555.56;4957729;28;20186;-81
2022/06/14 11:53:46;;;;;;;7.07;1.25;;;;;;;20.18;63.58;157591.72;4914449;29;20125;-78
2022/06/14 11:56:38;;;;;;;5.57;1.13;;;;;;;20.09;65.33;157567.19;4920642;29;20043;-80
2022/06/14 11:59:22;;;;;;;7.78;1.40;;;;;;;19.51;63.62;157421.38;4931186;28;20047;-80
2022/06/14 12:02:04;;;;;;;6.35;1.50;;;;;;;19.16;60.66;157335.00;4947408;29;20039;-78
2022/06/14 12:05:08;;;;;;;4.57;0.88;;;;;;;18.78;62.14;157239.53;4950942;28;20035;-77
2022/06/14 12:07:40;;;;;;;4.97;1.08;;;;;;;18.57;69.68;157185.38;4926029;29;20054;-82
2022/06/14 12:10:38;;;;;;;3.35;0.77;;;;;;;18.60;65.02;157194.38;4928980;29;20036;-80
2022/06/14 12:13:22;;;;;;;7.95;1.35;;;;;;;18.61;65.73;157197.00;4936601;28;20517;-79
2022/06/14 12:16:29;;;;;;;3.60;0.95;;;;;;;18.67;68.97;157212.44;4920476;29;20524;-77
2022/06/14 12:19:08;;;;;;;4.82;1.20;;;;;;;18.47;63.07;157160.88;4936212;29;20027;-78
2022/06/14 12:21:51;;;;;;;5.93;1.02;;;;;;;18.71;65.81;157221.47;4912313;29;20063;-81
2022/06/14 12:24:21;;;;;;;6.95;1.10;;;;;;;18.74;67.60;157227.91;4962104;28;20112;-79
2022/06/14 12:27:03;;;;;;;5.22;1.30;;;;;;;18.78;65.07;157238.22;4933067;29;20039;-78